createdAt,value
2019-05-22T00:02:43.726Z,22.17
2019-05-22T00:05:27.234Z,24.63
2019-05-22T00:07:57.918Z,25.23
2019-05-22T00:10:29.102Z,26.23
2019-05-22T00:13:00.050Z,23.03
2019-05-22T00:15:30.850Z,24.67
2019-05-22T00:18:02.131Z,24.00
2019-05-22T00:20:32.024Z,25.83
2019-05-22T00:23:05.620Z,21.73
2019-05-22T00:25:36.350Z,28.90
2019-05-22T00:28:06.655Z,27.23
2019-05-22T00:30:39.052Z,29.07
2019-05-22T00:33:09.843Z,29.73
2019-05-22T00:35:39.840Z,29.97
2019-05-22T00:38:09.855Z,26.13
2019-05-22T00:40:45.518Z,29.57
2019-05-22T00:43:18.698Z,25.87
2019-05-22T00:45:50.641Z,26.27
2019-05-22T00:48:22.989Z,29.13
2019-05-22T00:51:16.589Z,25.17
2019-05-22T00:53:58.870Z,31.03
2019-05-22T00:56:37.171Z,30.43
2019-05-22T00:59:14.143Z,31.90
2019-05-22T01:01:50.242Z,25.00
2019-05-22T01:04:23.177Z,26.13
2019-05-22T01:06:55.119Z,24.47
2019-05-22T01:09:31.856Z,29.57
2019-05-22T01:12:02.829Z,26.17
2019-05-22T01:14:42.310Z,26.70
2019-05-22T01:17:06.711Z,30.27
2019-05-22T01:19:37.789Z,27.03
2019-05-22T01:22:09.543Z,26.57
2019-05-22T01:24:41.029Z,24.23
2019-05-22T01:27:11.305Z,27.27
2019-05-22T01:29:41.852Z,28.43
2019-05-22T01:32:20.783Z,25.50
2019-05-22T01:34:51.171Z,31.07
2019-05-22T01:37:22.113Z,26.90
2019-05-22T01:39:58.203Z,25.43
2019-05-22T01:42:34.894Z,23.97
2019-05-22T01:45:07.158Z,24.43
2019-05-22T01:47:46.829Z,21.87
2019-05-22T01:50:24.638Z,23.63
2019-05-22T01:52:56.162Z,26.77
2019-05-22T01:55:26.412Z,26.67
2019-05-22T01:57:56.245Z,23.50
2019-05-22T02:00:27.563Z,27.43
2019-05-22T02:02:57.835Z,25.57
2019-05-22T02:05:27.239Z,26.77
2019-05-22T02:07:57.202Z,23.17
2019-05-22T02:10:30.881Z,25.43
2019-05-22T02:13:03.564Z,23.23
2019-05-22T02:15:35.120Z,29.30
2019-05-22T02:18:08.451Z,27.30
2019-05-22T02:20:38.275Z,30.23
2019-05-22T02:23:08.321Z,27.33
2019-05-22T02:25:39.204Z,25.33
2019-05-22T02:28:10.503Z,27.80
2019-05-22T02:30:42.564Z,26.37
2019-05-22T02:33:14.195Z,24.37
2019-05-22T02:35:45.384Z,25.03
2019-05-22T02:38:15.666Z,25.73
2019-05-22T02:40:47.007Z,24.17
2019-05-22T02:43:18.727Z,22.43
2019-05-22T02:45:49.813Z,24.90
2019-05-22T02:48:21.050Z,24.37
2019-05-22T02:50:52.971Z,29.17
2019-05-22T02:53:23.633Z,21.13
2019-05-22T02:55:53.322Z,25.33
2019-05-22T02:58:24.279Z,26.87
2019-05-22T03:01:00.426Z,25.47
2019-05-22T03:03:32.139Z,20.90
2019-05-22T03:06:04.279Z,27.13
2019-05-22T03:09:27.945Z,28.67
2019-05-22T03:12:08.944Z,27.57
2019-05-22T03:14:39.974Z,27.10
2019-05-22T03:17:33.568Z,24.57
2019-05-22T03:20:11.432Z,24.00
2019-05-22T03:23:02.942Z,24.50
2019-05-22T03:25:34.275Z,23.33
2019-05-22T03:28:05.739Z,20.80
2019-05-22T03:30:39.322Z,26.93
2019-05-22T03:33:09.870Z,24.00
2019-05-22T03:35:47.036Z,20.33
2019-05-22T03:38:18.187Z,23.03
2019-05-22T03:40:50.597Z,23.50
2019-05-22T03:43:24.099Z,23.53
2019-05-22T03:45:56.155Z,26.07
2019-05-22T03:48:28.569Z,22.30
2019-05-22T03:51:08.819Z,21.53
2019-05-22T03:53:39.303Z,22.63
2019-05-22T03:56:09.234Z,24.40
2019-05-22T03:58:38.754Z,25.67
2019-05-22T04:01:09.112Z,22.23
2019-05-22T04:03:39.209Z,25.43
2019-05-22T04:06:10.087Z,25.77
2019-05-22T04:08:39.522Z,29.00
2019-05-22T04:11:13.301Z,23.07
2019-05-22T04:13:42.696Z,24.00
2019-05-22T04:16:14.037Z,26.80
2019-05-22T04:18:44.286Z,25.43
2019-05-22T04:21:14.333Z,26.43
2019-05-22T04:23:43.789Z,25.97
2019-05-22T04:26:14.014Z,24.23
2019-05-22T04:28:52.999Z,22.30
2019-05-22T04:31:37.530Z,21.53
2019-05-22T04:34:07.481Z,22.20
2019-05-22T04:36:37.845Z,21.50
2019-05-22T04:39:12.260Z,17.93
2019-05-22T04:41:43.068Z,20.57
2019-05-22T04:44:12.750Z,19.53
2019-05-22T04:46:43.533Z,20.67
2019-05-22T04:49:14.422Z,17.60
2019-05-22T04:51:44.883Z,17.03
2019-05-22T04:54:15.119Z,18.27
2019-05-22T04:56:45.477Z,19.50
2019-05-22T04:59:15.528Z,21.10
2019-05-22T05:01:46.145Z,14.13
2019-05-22T05:04:16.007Z,22.33
2019-05-22T05:06:46.459Z,19.27
2019-05-22T05:09:16.208Z,15.67
2019-05-22T05:11:46.399Z,12.63
2019-05-22T05:14:15.808Z,14.27
2019-05-22T05:16:45.937Z,14.63
2019-05-22T05:19:15.610Z,16.27
2019-05-22T05:21:45.126Z,13.97
2019-05-22T05:24:14.995Z,17.20
2019-05-22T05:26:44.841Z,16.27
2019-05-22T05:29:29.440Z,17.20
2019-05-22T05:31:59.875Z,19.23
2019-05-22T05:34:39.863Z,17.20
2019-05-22T05:37:10.165Z,15.23
2019-05-22T05:40:27.671Z,21.73
2019-05-22T05:42:57.523Z,15.57
2019-05-22T05:45:29.593Z,15.93
2019-05-22T05:48:00.300Z,13.93
2019-05-22T05:50:39.610Z,14.53
2019-05-22T05:53:03.679Z,13.17
2019-05-22T05:55:56.820Z,13.97
2019-05-22T05:58:29.700Z,14.07
2019-05-22T06:01:09.790Z,11.17
2019-05-22T06:03:40.513Z,12.50
2019-05-22T06:07:00.479Z,9.83
2019-05-22T06:09:29.689Z,14.27
2019-05-22T06:12:05.444Z,11.97
2019-05-22T06:14:33.035Z,12.40
2019-05-22T06:17:42.614Z,12.50
2019-05-22T06:20:17.951Z,11.30
2019-05-22T06:23:27.493Z,13.60
2019-05-22T06:25:58.323Z,16.13
2019-05-22T06:28:30.849Z,14.17
2019-05-22T06:31:01.465Z,10.07
2019-05-22T06:33:32.794Z,11.30
2019-05-22T06:36:06.191Z,10.47
2019-05-22T06:38:49.340Z,13.13
2019-05-22T06:41:20.191Z,13.67
2019-05-22T06:44:39.833Z,11.63
2019-05-22T06:47:16.928Z,13.00
2019-05-22T06:49:54.416Z,17.90
2019-05-22T06:52:25.374Z,12.17
2019-05-22T06:54:56.326Z,12.80
2019-05-22T06:57:28.461Z,9.83
2019-05-22T07:00:14.687Z,10.83
2019-05-22T07:02:35.782Z,12.30
2019-05-22T07:05:07.097Z,10.37
2019-05-22T07:07:36.579Z,8.03
2019-05-22T07:10:08.592Z,11.87
2019-05-22T07:12:39.311Z,7.73
2019-05-22T07:15:50.368Z,12.57
2019-05-22T07:18:22.912Z,12.70
2019-05-22T07:20:54.782Z,9.83
2019-05-22T07:23:27.793Z,9.77
2019-05-22T07:25:59.510Z,7.93
2019-05-22T07:28:30.250Z,10.70
2019-05-22T07:31:00.419Z,9.33
2019-05-22T07:33:29.853Z,12.90
2019-05-22T07:36:10.031Z,9.80
2019-05-22T07:38:30.527Z,10.57
2019-05-22T07:41:00.842Z,9.40
2019-05-22T07:43:30.228Z,12.10
2019-05-22T07:46:00.686Z,8.53
2019-05-22T07:48:32.203Z,7.30
2019-05-22T07:51:04.060Z,7.93
2019-05-22T07:53:33.801Z,9.13
2019-05-22T07:56:06.055Z,8.80
2019-05-22T07:58:35.928Z,9.50
2019-05-22T08:01:06.553Z,9.47
2019-05-22T08:03:37.455Z,10.73
2019-05-22T08:06:08.319Z,9.13
2019-05-22T08:08:39.852Z,11.30
2019-05-22T08:11:11.344Z,8.97
2019-05-22T08:13:42.236Z,8.67
2019-05-22T08:16:12.210Z,10.47
2019-05-22T08:18:42.955Z,10.83
2019-05-22T08:21:12.662Z,7.60
2019-05-22T08:23:42.504Z,7.60
2019-05-22T08:26:14.941Z,12.17
2019-05-22T08:28:44.388Z,9.53
2019-05-22T08:31:15.746Z,7.20
2019-05-22T08:33:45.189Z,7.00
2019-05-22T08:36:15.067Z,6.60
2019-05-22T08:38:45.579Z,7.57
2019-05-22T08:41:17.959Z,6.60
2019-05-22T08:44:13.563Z,9.57
2019-05-22T08:46:20.073Z,7.10
2019-05-22T08:48:50.146Z,8.03
2019-05-22T08:51:20.172Z,6.83
2019-05-22T08:53:49.912Z,6.80
2019-05-22T08:56:20.107Z,7.37
2019-05-22T08:58:51.214Z,7.67
2019-05-22T09:01:21.394Z,9.00
2019-05-22T09:03:51.378Z,7.80
2019-05-22T09:06:21.452Z,5.90
2019-05-22T09:08:50.928Z,9.13
2019-05-22T09:11:20.328Z,7.10
2019-05-22T09:13:49.751Z,5.73
2019-05-22T09:16:20.180Z,7.60
2019-05-22T09:18:50.078Z,8.77
2019-05-22T09:21:20.198Z,5.97
2019-05-22T09:23:50.220Z,7.77
2019-05-22T09:26:20.034Z,6.87
2019-05-22T09:28:49.950Z,8.10
2019-05-22T09:31:19.500Z,8.73
2019-05-22T09:33:49.427Z,9.43
2019-05-22T09:36:18.829Z,6.80
2019-05-22T09:38:52.110Z,6.00
2019-05-22T09:41:20.408Z,5.83
2019-05-22T09:43:49.794Z,8.77
2019-05-22T09:46:19.338Z,9.17
2019-05-22T09:48:48.960Z,7.20
2019-05-22T09:51:18.678Z,7.83
2019-05-22T09:53:48.915Z,4.90
2019-05-22T09:56:18.325Z,8.57
2019-05-22T09:58:47.943Z,4.73
2019-05-22T10:01:18.111Z,5.87
2019-05-22T10:03:47.736Z,8.00
2019-05-22T10:06:17.273Z,5.27
2019-05-22T10:08:46.701Z,6.93
2019-05-22T10:11:16.764Z,6.37
2019-05-22T10:13:46.598Z,4.53
2019-05-22T10:16:16.112Z,4.47
2019-05-22T10:18:45.691Z,6.13
2019-05-22T10:21:15.588Z,4.40
2019-05-22T10:23:45.880Z,6.07
2019-05-22T10:26:16.104Z,3.97
2019-05-22T10:28:45.843Z,5.43
2019-05-22T10:31:17.762Z,5.13
2019-05-22T10:33:46.402Z,4.77
2019-05-22T10:36:16.734Z,6.93
2019-05-22T10:38:46.481Z,6.03
2019-05-22T10:41:16.862Z,3.90
2019-05-22T10:43:47.218Z,4.30
2019-05-22T10:46:16.844Z,4.37
2019-05-22T10:48:47.297Z,4.67
2019-05-22T10:51:16.702Z,5.37
2019-05-22T10:53:46.332Z,4.70
2019-05-22T10:56:16.220Z,5.67
2019-05-22T10:58:45.676Z,5.57
2019-05-22T11:01:15.966Z,3.03
2019-05-22T11:03:45.362Z,3.03
2019-05-22T11:06:15.100Z,6.70
2019-05-22T11:08:45.439Z,4.03
2019-05-22T11:11:15.931Z,4.47
2019-05-22T11:14:00.116Z,5.47
2019-05-22T11:16:18.044Z,6.67
2019-05-22T11:18:47.642Z,4.43
2019-05-22T11:21:17.685Z,4.17
2019-05-22T11:23:52.762Z,2.90
2019-05-22T11:26:18.851Z,4.50
2019-05-22T11:28:49.495Z,4.70
2019-05-22T11:31:18.908Z,3.90
2019-05-22T11:33:48.501Z,2.90
2019-05-22T11:36:19.104Z,5.87
2019-05-22T11:38:48.930Z,5.73
2019-05-22T11:41:18.840Z,4.37
2019-05-22T11:43:48.634Z,2.77
2019-05-22T11:46:18.065Z,5.23
2019-05-22T11:48:48.006Z,3.97
2019-05-22T11:51:17.712Z,2.20
2019-05-22T11:53:47.107Z,5.87
2019-05-22T11:56:16.574Z,1.90
2019-05-22T11:58:46.830Z,2.00
2019-05-22T12:01:35.577Z,1.60
2019-05-22T12:04:07.520Z,4.73
2019-05-22T12:06:37.572Z,4.03
2019-05-22T12:09:09.095Z,3.77
2019-05-22T12:11:42.967Z,2.73
2019-05-22T12:14:10.693Z,2.70
2019-05-22T12:16:41.190Z,2.57
2019-05-22T12:19:11.052Z,2.77
2019-05-22T12:21:41.074Z,2.93
2019-05-22T12:24:26.246Z,2.73
2019-05-22T12:26:42.573Z,5.90
2019-05-22T12:29:12.163Z,3.53
2019-05-22T12:31:41.595Z,6.97
2019-05-22T12:34:11.478Z,3.50
2019-05-22T12:36:41.154Z,5.23
2019-05-22T12:39:11.478Z,5.40
2019-05-22T12:41:42.004Z,3.30
2019-05-22T12:44:13.054Z,3.40
2019-05-22T12:46:42.882Z,4.60
2019-05-22T12:49:14.840Z,5.03
2019-05-22T12:51:46.207Z,5.37
2019-05-22T12:54:16.245Z,4.10
2019-05-22T12:56:45.964Z,3.97
2019-05-22T12:59:15.895Z,4.30
2019-05-22T13:01:47.409Z,4.03
2019-05-22T13:04:18.575Z,4.03
2019-05-22T13:06:48.318Z,7.27
2019-05-22T13:09:17.900Z,3.83
2019-05-22T13:11:47.358Z,4.00
2019-05-22T13:14:18.023Z,3.40
2019-05-22T13:16:49.338Z,2.67
2019-05-22T13:19:19.365Z,4.17
2019-05-22T13:21:52.241Z,4.00
2019-05-22T13:24:23.075Z,6.07
2019-05-22T13:26:52.983Z,4.47
2019-05-22T13:29:23.867Z,3.07
2019-05-22T13:31:54.523Z,3.50
2019-05-22T13:34:29.544Z,1.83
2019-05-22T13:36:59.968Z,2.83
2019-05-22T13:39:30.337Z,4.47
2019-05-22T13:42:00.139Z,2.70
2019-05-22T13:44:29.727Z,3.57
2019-05-22T13:47:00.587Z,3.33
2019-05-22T13:49:32.033Z,2.97
2019-05-22T13:52:01.575Z,4.03
2019-05-22T13:54:32.007Z,4.90
2019-05-22T13:57:02.769Z,2.03
2019-05-22T13:59:33.050Z,3.53
2019-05-22T14:02:02.559Z,3.87
2019-05-22T14:04:32.295Z,3.43
2019-05-22T14:07:03.222Z,2.93
2019-05-22T14:09:33.032Z,3.77
2019-05-22T14:12:02.703Z,1.70
2019-05-22T14:14:32.535Z,3.53
2019-05-22T14:17:02.657Z,1.87
2019-05-22T14:19:32.550Z,4.07
2019-05-22T14:22:02.280Z,2.90
2019-05-22T14:24:31.855Z,2.30
2019-05-22T14:27:01.588Z,2.40
2019-05-22T14:29:33.934Z,3.17
2019-05-22T14:32:05.180Z,3.37
2019-05-22T14:34:34.802Z,2.17
2019-05-22T14:37:05.185Z,2.63
2019-05-22T14:39:35.810Z,4.20
2019-05-22T14:42:06.569Z,5.17
2019-05-22T14:44:36.441Z,2.13
2019-05-22T14:47:14.587Z,2.57
2019-05-22T14:49:37.551Z,4.93
2019-05-22T14:52:07.707Z,3.63
2019-05-22T14:54:37.424Z,2.07
2019-05-22T14:57:08.776Z,1.90
2019-05-22T14:59:39.024Z,3.50
2019-05-22T15:02:09.547Z,2.33
2019-05-22T15:04:39.935Z,2.43
2019-05-22T15:07:10.478Z,3.13
2019-05-22T15:09:40.301Z,3.27
2019-05-22T15:12:10.014Z,2.50
2019-05-22T15:14:39.764Z,3.20
2019-05-22T15:17:09.905Z,3.27
2019-05-22T15:19:39.420Z,2.43
2019-05-22T15:22:10.933Z,2.10
2019-05-22T15:24:41.044Z,2.00
2019-05-22T15:27:12.524Z,2.20
2019-05-22T15:29:48.361Z,4.90
2019-05-22T15:32:19.459Z,4.90
2019-05-22T15:34:49.668Z,2.30
2019-05-22T15:37:21.901Z,2.37
2019-05-22T15:39:52.872Z,2.63
2019-05-22T15:42:40.201Z,2.13
2019-05-22T15:45:16.362Z,2.10
2019-05-22T15:47:55.610Z,3.43
2019-05-22T15:50:26.656Z,63.73
2019-05-22T15:53:03.808Z,35.07
2019-05-22T15:55:34.108Z,26.40
2019-05-22T15:58:05.869Z,12.40
2019-05-22T16:00:39.247Z,11.43
2019-05-22T16:03:13.634Z,12.97
2019-05-22T16:05:45.140Z,8.97
2019-05-22T16:08:16.527Z,3.47
2019-05-22T16:10:48.986Z,4.33
2019-05-22T16:13:22.760Z,3.30
2019-05-22T16:15:54.826Z,3.53
2019-05-22T16:18:31.676Z,4.60
2019-05-22T16:21:03.921Z,2.70
2019-05-22T16:23:37.323Z,2.83
2019-05-22T16:26:08.983Z,4.43
2019-05-22T16:28:40.941Z,4.17
2019-05-22T16:31:10.556Z,4.50
2019-05-22T16:33:41.756Z,3.20
2019-05-22T16:36:13.541Z,4.10
2019-05-22T16:38:44.543Z,4.13
2019-05-22T16:41:14.333Z,3.37
2019-05-22T16:43:49.697Z,2.67
2019-05-22T16:46:19.742Z,6.40
2019-05-22T16:48:49.667Z,3.83
2019-05-22T16:51:21.744Z,3.03
2019-05-22T16:53:57.200Z,3.83
2019-05-22T16:56:27.729Z,4.30
2019-05-22T16:58:57.865Z,3.17
2019-05-22T17:01:28.009Z,2.80
2019-05-22T17:04:02.798Z,3.40
2019-05-22T17:06:33.351Z,3.27
2019-05-22T17:09:05.817Z,4.43
2019-05-22T17:11:35.711Z,3.80
2019-05-22T17:14:06.746Z,4.40
2019-05-22T17:16:39.784Z,3.90
2019-05-22T17:19:25.816Z,3.67
2019-05-22T17:21:45.070Z,4.30
2019-05-22T17:24:15.037Z,4.40
2019-05-22T17:26:44.883Z,5.03
2019-05-22T17:29:15.193Z,4.93
2019-05-22T17:31:45.407Z,4.53
2019-05-22T17:34:37.644Z,4.90
2019-05-22T17:37:15.765Z,4.33
2019-05-22T17:39:49.009Z,3.90
2019-05-22T17:42:23.327Z,4.30
2019-05-22T17:44:54.003Z,5.60
2019-05-22T17:47:26.270Z,4.13
2019-05-22T17:49:56.817Z,3.87
2019-05-22T17:52:27.636Z,4.33
2019-05-22T17:54:57.700Z,4.37
2019-05-22T17:57:27.384Z,3.93
2019-05-22T17:59:57.330Z,4.27
2019-05-22T18:02:36.523Z,4.43
2019-05-22T18:05:08.304Z,4.90
2019-05-22T18:07:39.452Z,4.60
2019-05-22T18:10:10.599Z,5.77
2019-05-22T18:12:41.981Z,5.57
2019-05-22T18:15:14.650Z,5.30
2019-05-22T18:17:45.002Z,5.63
2019-05-22T18:20:15.934Z,6.33
2019-05-22T18:22:45.814Z,6.20
2019-05-22T18:25:15.786Z,6.33
2019-05-22T18:27:45.872Z,5.63
2019-05-22T18:30:16.718Z,6.20
2019-05-22T18:32:46.339Z,5.10
2019-05-22T18:35:16.537Z,5.13
2019-05-22T18:37:46.618Z,5.73
2019-05-22T18:40:16.824Z,5.23
2019-05-22T18:42:47.049Z,5.13
2019-05-22T18:45:17.729Z,5.50
2019-05-22T18:47:47.128Z,5.07
2019-05-22T18:50:17.738Z,5.90
2019-05-22T18:52:50.555Z,5.73
2019-05-22T18:55:20.736Z,6.00
2019-05-22T18:57:50.162Z,5.63
2019-05-22T19:00:24.852Z,5.33
2019-05-22T19:02:54.365Z,6.07
2019-05-22T19:05:27.692Z,5.60
2019-05-22T19:07:57.320Z,7.30
2019-05-22T19:10:27.068Z,5.40
2019-05-22T19:12:57.203Z,6.87
2019-05-22T19:15:27.123Z,6.27
2019-05-22T19:17:56.751Z,6.10
2019-05-22T19:20:26.478Z,7.33
2019-05-22T19:23:00.841Z,5.80
2019-05-22T19:25:28.277Z,6.03
2019-05-22T19:27:58.218Z,6.60
2019-05-22T19:30:28.059Z,6.20
2019-05-22T19:32:57.490Z,6.63
2019-05-22T19:35:26.929Z,7.00
2019-05-22T19:37:57.482Z,7.20
2019-05-22T19:40:27.349Z,7.07
2019-05-22T19:42:57.094Z,6.37
2019-05-22T19:45:30.738Z,6.20
2019-05-22T19:47:59.587Z,6.80
2019-05-22T19:50:29.333Z,7.27
2019-05-22T19:53:15.846Z,8.87
2019-05-22T19:55:31.372Z,7.93
2019-05-22T19:58:01.879Z,7.07
2019-05-22T20:00:32.267Z,9.07
2019-05-22T20:03:02.762Z,6.60
2019-05-22T20:05:33.939Z,7.67
2019-05-22T20:08:04.349Z,7.43
2019-05-22T20:10:34.727Z,7.60
2019-05-22T20:13:06.357Z,7.13
2019-05-22T20:15:36.460Z,6.97
2019-05-22T20:18:07.842Z,7.43
2019-05-22T20:20:39.168Z,7.40
2019-05-22T20:23:10.398Z,7.23
2019-05-22T20:25:40.117Z,7.17
2019-05-22T20:28:11.737Z,9.17
2019-05-22T20:30:41.713Z,7.60
2019-05-22T20:33:11.622Z,8.03
2019-05-22T20:35:41.749Z,8.87
2019-05-22T20:38:11.825Z,7.80
2019-05-22T20:40:41.585Z,9.97
2019-05-22T20:43:12.425Z,9.63
2019-05-22T20:45:45.148Z,7.87
2019-05-22T20:48:26.672Z,8.70
2019-05-22T20:50:59.781Z,7.17
2019-05-22T20:53:31.092Z,8.20
2019-05-22T20:56:01.372Z,9.13
2019-05-22T20:58:33.222Z,8.13
2019-05-22T21:01:03.684Z,8.97
2019-05-22T21:03:33.564Z,8.70
2019-05-22T21:06:07.018Z,8.40
2019-05-22T21:08:37.089Z,8.97
2019-05-22T21:11:08.965Z,9.00
2019-05-22T21:13:38.374Z,9.57
2019-05-22T21:16:09.458Z,8.93
2019-05-22T21:18:42.672Z,9.37
2019-05-22T21:21:13.660Z,10.03
2019-05-22T21:23:44.564Z,9.67
2019-05-22T21:26:15.695Z,9.10
2019-05-22T21:28:46.381Z,9.90
2019-05-22T21:31:17.063Z,10.37
2019-05-22T21:33:47.022Z,11.03
2019-05-22T21:36:19.476Z,10.47
2019-05-22T21:38:49.940Z,10.57
2019-05-22T21:41:22.061Z,10.43
2019-05-22T21:43:52.457Z,10.80
2019-05-22T21:46:22.816Z,9.93
2019-05-22T21:48:55.294Z,12.33
2019-05-22T21:51:24.952Z,12.03
2019-05-22T21:53:55.803Z,12.90
2019-05-22T21:56:26.108Z,11.73
2019-05-22T21:58:56.050Z,12.10
2019-05-22T22:01:32.645Z,12.57
2019-05-22T22:04:11.899Z,13.23
2019-05-22T22:06:42.170Z,13.00
2019-05-22T22:09:12.110Z,13.80
2019-05-22T22:11:41.990Z,12.77
2019-05-22T22:14:12.571Z,13.57
2019-05-22T22:16:42.152Z,13.00
2019-05-22T22:19:12.499Z,12.33
2019-05-22T22:21:43.054Z,13.07
2019-05-22T22:24:12.971Z,13.07
2019-05-22T22:26:42.869Z,13.40
2019-05-22T22:29:12.501Z,12.93
2019-05-22T22:31:42.945Z,12.93
2019-05-22T22:34:33.020Z,13.47
2019-05-22T22:37:02.628Z,12.73
2019-05-22T22:39:34.362Z,13.53
2019-05-22T22:42:06.518Z,13.43
2019-05-22T22:44:37.043Z,12.80
2019-05-22T22:47:13.791Z,12.63
2019-05-22T22:49:43.972Z,13.30
2019-05-22T22:52:16.196Z,15.53
2019-05-22T22:54:46.315Z,13.97
2019-05-22T22:57:17.210Z,14.40
2019-05-22T22:59:47.040Z,14.33
2019-05-22T23:02:19.531Z,13.10
2019-05-22T23:04:50.076Z,13.70
2019-05-22T23:07:20.641Z,13.87
2019-05-22T23:09:50.422Z,13.33
2019-05-22T23:12:21.296Z,13.50
2019-05-22T23:14:54.944Z,12.93
2019-05-22T23:17:24.984Z,13.30
2019-05-22T23:19:53.741Z,13.03
2019-05-22T23:22:27.347Z,12.77
2019-05-22T23:24:59.892Z,13.43
2019-05-22T23:27:31.650Z,13.60
2019-05-22T23:30:01.837Z,13.30
2019-05-22T23:32:31.636Z,13.33
2019-05-22T23:35:02.099Z,12.80
2019-05-22T23:37:31.576Z,14.73
2019-05-22T23:40:01.663Z,13.27
2019-05-22T23:42:35.189Z,12.87
2019-05-22T23:45:10.553Z,13.73
2019-05-22T23:48:17.611Z,13.50
2019-05-22T23:50:48.276Z,12.87
2019-05-22T23:53:18.533Z,13.50
2019-05-22T23:55:48.872Z,14.20
2019-05-22T23:58:20.179Z,13.40
